Currently 46°F in San Jacinto, California, USA
46°F
51°F / 45°F
calm
0.00"
Monday, December 6, 2021 5:40 AM PST

San Jacinto, California Weather Summary
Last 36 Hours

Temperature Winds Hourly Humidity Dewpoint
Time Report Norm Report Norm Max Gusts Precip. Rpt. Norm Rpt. Norm Pressure
1Mon 05:40 AM  45.7°F  45°F  calm  calm  none  0.00"  51%  69%  28°F  35°F  30.09"
Mon 05:00 AM  46.4°F  45°F  calm  calm  none  0.00"  49%  69%  27°F  35°F  30.07"
Mon 04:00 AM  45.7°F  46°F  calm  calm  2 mph  0.00"  51%  68%  28°F  35°F  30.07"
3Mon 03:18 AM  45.3°F  46°F  calm  1 mph  none  ----  51%  67%  27°F  35°F  30.08"
Mon 03:00 AM  46.2°F  47°F  calm  1 mph  none  0.00"  50%  66%  28°F  36°F  30.08"
Mon 02:00 AM  46.8°F  47°F  calm  1 mph  none  0.00"  49%  65%  28°F  36°F  30.09"
Mon 01:00 AM  47.8°F  48°F  calm  1 mph  none  0.00"  49%  64%  29°F  36°F  30.09"
2Mon 12:02 AM  50.7°F  49°F  calm  1 mph  none  0.00"  43%  62%  28°F  36°F  30.08"
Sun 11:00 PM  50.7°F  50°F  calm  1 mph  none  0.00"  44%  60%  29°F  37°F  30.08"
Sun 10:00 PM  52.0°F  52°F  calm  1 mph  none  0.00"  43%  59%  29°F  37°F  30.08"
Sun 09:00 PM  55.2°F  53°F  calm  1 mph  none  0.00"  39%  56%  30°F  37°F  30.07"
Sun 08:00 PM  57.6°F  55°F  calm  1 mph  none  0.00"  34%  54%  28°F  38°F  30.07"
Sun 07:00 PM  61.9°F  57°F  calm  1 mph  3 mph  0.00"  33%  50%  31°F  38°F  30.06"
Sun 06:00 PM  65.5°F  59°F  calm  1 mph  none  0.00"  33%  47%  34°F  38°F  30.05"
Sun 05:00 PM  72.3°F  62°F  calm  2 mph  none  0.00"  26%  42%  34°F  38°F  30.03"
Sun 04:00 PM  76.5°F  66°F  calm  2 mph  3 mph  0.00"  23%  37%  35°F  37°F  30.03"
Sun 03:00 PM  77.7°F  67°F  calm  2 mph  1 mph  0.00"  21%  34%  33°F  37°F  30.03"
Sun 02:00 PM  77.2°F  68°F  calm  2 mph  none  0.00"  18%  33%  29°F  37°F  30.04"
Sun 01:00 PM  74.8°F  67°F  calm  2 mph  none  0.00"  20%  34%  29°F  36°F  30.06"
Sun 12:00 PM  70.7°F  65°F  calm  2 mph  none  0.00"  27%  36%  34°F  37°F  30.08"
Sun 11:00 AM  65.7°F  62°F  calm  1 mph  none  0.00"  34%  41%  35°F  38°F  30.12"
Sun 10:00 AM  58.3°F  58°F  calm  1 mph  none  0.00"  45%  49%  36°F  38°F  30.15"
Sun 09:00 AM  50.4°F  53°F  calm  1 mph  none  0.00"  60%  57%  36°F  38°F  30.16"
Sun 08:00 AM  43.7°F  47°F  calm  calm  none  0.00"  72%  65%  35°F  36°F  30.16"
Sun 07:00 AM  38.8°F  44°F  calm  1 mph  none  0.00"  77%  69%  32°F  34°F  30.14"
Sun 06:00 AM  39.6°F  44°F  calm  calm  none  0.00"  75%  69%  32°F  34°F  30.13"
Sun 05:00 AM  40.5°F  45°F  calm  calm  none  0.00"  74%  68%  33°F  34°F  30.13"
Sun 04:00 AM  40.8°F  45°F  calm  calm  none  0.00"  72%  67%  32°F  35°F  30.13"
Sun 03:00 AM  41.5°F  46°F  calm  calm  none  0.00"  69%  66%  32°F  35°F  30.13"
Sun 02:00 AM  43.5°F  47°F  calm  1 mph  none  0.00"  70%  64%  34°F  35°F  30.14"
Sun 01:00 AM  44.4°F  48°F  calm  1 mph  none  0.00"  68%  63%  34°F  35°F  30.14"
Sun 12:02 AM  46.0°F  49°F  calm  1 mph  none  0.00"  69%  61%  36°F  36°F  30.16"
Sat 11:00 PM  47.5°F  50°F  calm  1 mph  none  0.00"  67%  59%  37°F  36°F  30.17"
Sat 10:00 PM  49.5°F  51°F  calm  1 mph  none  0.00"  65%  57%  38°F  36°F  30.17"
Sat 09:00 PM  52.3°F  53°F  calm  1 mph  none  0.00"  64%  54%  40°F  37°F  30.16"
Sat 08:00 PM  55.9°F  55°F  calm  1 mph  none  0.00"  58%  52%  41°F  37°F  30.15"
Sat 07:00 PM  59.2°F  57°F  calm  1 mph  none  0.00"  53%  49%  41°F  37°F  30.14"
Sat 06:00 PM  61.3°F  59°F  calm  1 mph  8 mph  0.00"  45%  45%  39°F  37°F  30.12"

  1. Current weather data. No green row appears if the current weather data is also the high or low for the current day.
  2. High temperature for the current day.
  3. Low temperature for the current day.

The San Jacinto, California weather pages are a service of WeatherCurrents. San Jacinto is located in the heart of the San Jacinto Valley, near Hemet, the Soboba Casino, and at the foot of the San Jacinto Mountains.
Copyright ©2021  WeatherCurrents. All rights reserved. - Submit questions and comments - Privacy Policy

This page automatically refreshes every 10 minutes.